Allingtown, Connecticut
Current Conditions -  °F | °C
As of 11:53 AM on Thursday 27 Nov 2014 (Local Time) from KHVN Reporting Station
Broken Clouds Broken Clouds  
Wind Chill: 35°   Ceiling: 7000
Heat Index: 41°   Visibility: 10mi
Dew Point: 29°   Wind: 9mph
Humidity: 62%   Direction: 320°NW
Pressure: 29.96"   Gusts: NA
Location:  41.2716°N, 72.9666°W
Report Text: KHVN 271653Z 32008KT 10SM FEW020 BKN070 BKN200 05/M02 A2996 RMK AO2 SLP146 T00501017
Loading
Personal Weather Stations






























Interactive Weather Map New forecast layout! Learn more

10-Day Weather Forecast

Advertisements
Track Severe Weather on mobile